Latest Coastal Weather Observations for Avalon

IDV60701

Issued at 12:41 pm EST Sunday 14 April 2024 (issued every 10 minutes, with the page automatically refreshed every 10 minutes)

About coastal observations | Map of coastal stations | Coastal observations for VIC | Marine services | Other Formats
Station Details ID: 087113 Name: AVALON AIRPORT Lat: -38.03 Lon: 144.48 Height: 10.6 m
Data from the previous 72 hours. | See also: Recent months at Avalon
Date/Time
EST
Wind Sea
Height
m
Swell Vis
km
Cloud Weather Temp
°C
Press
MSL
hPa
Rain since
9am
mm
Dir  Spd
kts
Gust
kts
Height
m
Period
s
Dir
14/12:30pm WNW 8 11 - - - - 10 Cloudy - 17.6 1023.4 0.0
14/12:00pm W 6 11 - - - - 10 Cloudy - 17.3 1023.5 0.0
14/11:30am W 8 11 - - - - 10 Cloudy - 16.8 1023.7 0.0
14/11:00am WSW 7 10 - - - - 9 Partly cloudy - 16.4 1023.7 0.0
14/10:30am W 7 10 - - - - 10 Cloudy - 16.2 1024.0 0.0
14/10:00am WSW 8 9 - - - - 10 Cloudy - 15.7 1024.1 0.0
14/09:30am W 7 8 - - - - 10 Cloudy - 15.0 1024.2 0.0
14/09:00am WNW 8 10 - - - - 10 Cloudy - 14.5 1024.2 0.0
14/08:30am WNW 6 8 - - - - 10 Cloudy - 13.9 1024.0 0.0
14/08:00am WNW 5 7 - - - - 10 Cloudy - 12.8 1023.9 0.0
14/07:30am NW 5 6 - - - - 10 Cloudy - 11.7 1023.7 0.0
14/07:00am WNW 5 6 - - - - 10 Cloudy - 10.8 1023.6 0.0
14/06:30am WNW 6 7 - - - - 10 Partly cloudy - 10.6 1023.4 0.0
14/06:00am NW 7 8 - - - - 10 Mostly clear - 10.6 1023.3 0.0
14/05:30am NW 6 7 - - - - 10 Partly cloudy - 10.0 1023.0 0.0
14/05:00am WNW 6 7 - - - - 10 Partly cloudy - 10.5 1022.8 0.0
14/04:30am WNW 4 5 - - - - 10 - - 10.1 1022.7 0.0
14/04:00am NW 5 6 - - - - 10 - - 10.4 1022.7 0.0
14/03:30am NW 5 6 - - - - 10 Partly cloudy - 10.6 1022.8 0.0
14/03:00am WNW 5 6 - - - - 10 - - 10.5 1022.9 0.0
14/02:30am W 6 7 - - - - 10 - - 11.4 1023.2 0.0
14/02:00am WNW 5 6 - - - - 10 - - 12.0 1023.3 0.0
14/01:30am WNW 4 5 - - - - 10 Partly cloudy - 13.0 1023.2 0.0
14/01:00am NW 3 4 - - - - 10 Cloudy - 13.8 1023.3 0.0
14/12:30am NW 3 4 - - - - 10 Cloudy - 14.2 1023.4 0.0
14/12:00am NW 2 3 - - - - 10 Mostly cloudy - 14.4 1023.4 0.0
 
Date/Time
EST
Wind Sea
Height
m
Swell Vis
km
Cloud Weather Temp
°C
Press
MSL
hPa
Rain since
9am
mm
Dir  Spd
kts
Gust
kts
Height
m
Period
s
Dir
13/11:30pm NW 4 4 - - - - 10 Partly cloudy - 14.6 1023.6 0.0
13/11:00pm NW 5 6 - - - - 10 Partly cloudy - 14.7 1023.8 0.0
13/10:30pm NW 4 5 - - - - 10 Cloudy - 14.7 1024.0 0.0
13/10:00pm CALM 0 0 - - - - 10 Partly cloudy - 14.6 1024.0 0.0
13/09:30pm CALM 0 0 - - - - 10 Cloudy - 14.4 1023.9 0.0
13/09:00pm CALM 0 0 - - - - 10 Cloudy - 14.3 1023.8 0.0
13/08:30pm CALM 0 0 - - - - 10 Cloudy - 14.3 1023.7 0.0
13/08:00pm CALM 0 0 - - - - 10 Cloudy - 14.3 1023.6 0.0
13/07:30pm CALM 0 0 - - - - 10 Cloudy - 14.4 1023.4 0.0
13/07:00pm CALM 0 0 - - - - 10 Cloudy - 14.2 1023.3 0.0
13/06:30pm SE 3 4 - - - - 10 Cloudy - 14.6 1023.1 0.0
13/06:00pm ENE 4 6 - - - - 10 Mostly cloudy - 15.7 1022.8 0.0
13/05:30pm E 6 8 - - - - 10 Partly cloudy - 16.1 1022.6 0.0
13/05:00pm E 8 10 - - - - 10 Cloudy - 16.7 1022.3 0.0
13/04:30pm SSW 7 9 - - - - 10 Cloudy - 17.5 1022.1 0.0
13/04:00pm SSW 7 8 - - - - 10 Cloudy - 17.7 1022.2 0.0
13/03:30pm SSW 5 9 - - - - 10 Cloudy - 17.7 1022.3 0.0
13/03:00pm SW 6 8 - - - - 10 Mostly cloudy - 18.1 1022.3 0.0
13/02:30pm WSW 5 8 - - - - 10 Cloudy - 18.1 1022.4 0.0
13/02:00pm W 7 10 - - - - 10 Cloudy - 17.8 1022.5 0.0
13/01:30pm W 6 8 - - - - 10 Cloudy - 18.2 1022.7 0.0
13/01:00pm WSW 7 9 - - - - 10 Cloudy - 17.7 1023.1 0.0
13/12:30pm W 5 9 - - - - 10 Partly cloudy - 18.2 1023.5 0.0
13/12:00pm SW 7 10 - - - - 10 Mostly cloudy - 16.5 1023.8 0.0
13/11:30am SW 9 14 - - - - 10 Partly cloudy - 16.7 1023.9 0.0
13/11:00am WSW 10 13 - - - - 10 Partly cloudy - 16.4 1024.0 0.0
13/10:30am WNW 9 12 - - - - 10 Partly cloudy - 17.1 1023.9 0.0
13/10:00am W 10 13 - - - - 10 - - 16.2 1024.0 0.0
13/09:30am W 12 14 - - - - 10 Partly cloudy - 15.1 1024.0 0.0
13/09:00am W 8 11 - - - - 10 Mostly cloudy - 13.8 1024.0 0.0
13/08:30am WNW 8 10 - - - - 10 Partly cloudy - 12.8 1023.8 0.0
13/08:00am NW 7 9 - - - - 10 Cloudy - 11.4 1023.5 0.0
13/07:30am WNW 8 9 - - - - 10 Cloudy - 11.0 1023.2 0.0
13/07:00am WNW 7 9 - - - - 10 Partly cloudy - 10.0 1023.0 0.0
13/06:30am WNW 7 8 - - - - 10 Partly cloudy - 9.5 1022.9 0.0
13/06:00am WNW 8 10 - - - - 10 Partly cloudy - 9.9 1022.6 0.0
13/05:30am WNW 8 9 - - - - 10 - - 9.4 1022.5 0.0
13/05:00am NW 6 7 - - - - 10 - - 8.9 1022.3 0.0
13/04:30am WNW 4 5 - - - - 10 - - 8.8 1022.1 0.0
13/04:00am WNW 6 7 - - - - 10 Partly cloudy - 9.7 1021.9 0.0
13/03:30am NW 7 8 - - - - 10 - - 9.8 1021.9 0.0
13/03:00am NW 6 8 - - - - 10 - - 9.8 1022.0 0.0
13/02:30am NW 7 8 - - - - 10 Partly cloudy - 10.1 1022.3 0.0
13/02:00am WNW 8 9 - - - - 10 Partly cloudy - 10.5 1022.4 0.0
13/01:30am WNW 7 8 - - - - 10 Partly cloudy - 10.6 1022.4 0.0
13/01:00am WNW 7 9 - - - - 10 Cloudy - 11.6 1022.3 0.0
13/12:30am NW 7 9 - - - - 10 Cloudy - 11.7 1022.3 0.0
13/12:00am NW 6 7 - - - - 10 Partly cloudy - 11.4 1022.2 0.0
 
Date/Time
EST
Wind Sea
Height
m
Swell Vis
km
Cloud Weather Temp
°C
Press
MSL
hPa
Rain since
9am
mm
Dir  Spd
kts
Gust
kts
Height
m
Period
s
Dir
12/11:30pm WNW 4 6 - - - - 10 Partly cloudy - 11.1 1022.2 0.0
12/11:00pm WNW 7 8 - - - - 10 Partly cloudy - 12.2 1022.3 0.0
12/10:30pm W 5 6 - - - - 10 Cloudy - 12.4 1022.4 0.0
12/10:00pm W 7 9 - - - - 10 Partly cloudy - 12.9 1022.4 0.0
12/09:30pm WSW 8 9 - - - - 10 Cloudy - 14.1 1022.4 0.0
12/09:00pm WSW 7 9 - - - - 10 Cloudy - 14.4 1022.2 0.0
12/08:30pm WSW 4 5 - - - - 10 Cloudy - 14.3 1022.1 0.0
12/08:00pm SSW 5 6 - - - - 10 Partly cloudy - 14.3 1022.0 0.0
12/07:30pm SSW 5 6 - - - - 10 Cloudy - 14.4 1022.0 0.0
12/07:00pm SSW 5 6 - - - - 10 Cloudy - 14.6 1021.8 0.0
12/06:30pm S 7 8 - - - - 10 Cloudy - 15.0 1021.5 0.0
12/06:00pm SSW 5 7 - - - - 10 Cloudy - 15.3 1021.3 0.0
12/05:30pm SSE 5 7 - - - - 10 Cloudy - 15.7 1021.0 0.0
12/05:00pm S 8 10 - - - - 10 Partly cloudy - 16.0 1020.8 0.0
12/04:30pm S 6 9 - - - - 10 Cloudy - 16.8 1020.6 0.0
12/04:00pm W 7 10 - - - - 10 Cloudy - 17.4 1020.7 0.0
12/03:30pm WNW 7 10 - - - - 10 Partly cloudy - 17.6 1020.8 0.0
12/03:00pm WNW 8 11 - - - - 10 Cloudy - 17.5 1021.1 0.0
12/02:30pm WNW 9 11 - - - - 10 Partly cloudy - 17.1 1021.3 0.0
12/02:00pm WNW 8 10 - - - - 10 Cloudy - 16.8 1021.4 0.0
12/01:30pm W 6 8 - - - - 10 Cloudy - 17.1 1021.6 0.0
12/01:00pm WSW 7 11 - - - - 10 Cloudy - 17.2 1022.0 0.0
12/12:30pm WSW 7 12 - - - - 10 Partly cloudy - 17.1 1022.5 0.0
12/12:00pm WSW 7 11 - - - - 10 Cloudy - 17.1 1022.7 0.0
12/11:30am W 8 12 - - - - 10 Cloudy - 17.0 1023.0 0.0
12/11:00am W 10 13 - - - - 10 Partly cloudy - 16.5 1023.1 0.0
12/10:30am W 11 15 - - - - 10 Partly cloudy - 16.3 1023.1 0.0
12/10:00am W 12 16 - - - - 10 Partly cloudy - 15.0 1023.3 0.0
12/09:30am W 12 16 - - - - 10 Partly cloudy - 14.0 1023.3 0.0
12/09:00am W 11 16 - - - - 10 Mostly cloudy - 12.8 1023.5 0.0
12/08:30am W 11 15 - - - - 10 Cloudy - 12.5 1023.3 0.0
12/08:00am W 11 16 - - - - 10 Cloudy - 11.8 1023.0 0.0
12/07:30am W 8 12 - - - - 10 Cloudy - 11.5 1022.7 0.0
12/07:00am W 10 13 - - - - 10 Cloudy - 11.3 1022.4 0.0
12/06:30am W 7 10 - - - - 10 Cloudy - 11.3 1022.4 0.0
12/06:00am WNW 8 9 - - - - 10 Cloudy - 11.5 1022.4 0.0
12/05:30am WNW 7 8 - - - - 10 Cloudy - 11.4 1022.4 0.0
12/05:00am WNW 7 9 - - - - 10 Cloudy - 11.4 1022.2 0.0
12/04:30am WNW 7 8 - - - - 10 Cloudy - 11.4 1022.0 0.0
12/04:00am WNW 7 9 - - - - 10 Cloudy - 11.1 1021.9 0.0
12/03:30am NW 7 8 - - - - 10 Cloudy - 11.0 1021.8 0.0
12/03:00am WNW 7 8 - - - - 10 Mostly cloudy - 11.2 1022.1 0.0
12/02:30am WNW 7 9 - - - - 10 Partly cloudy - 11.1 1022.3 0.0
12/02:00am WNW 7 8 - - - - 10 Cloudy - 10.9 1022.5 0.0
12/01:30am WNW 5 6 - - - - 10 Partly cloudy - 10.4 1022.8 0.0
12/01:00am WNW 6 7 - - - - 10 - - 10.7 1022.9 0.0
12/12:30am WNW 5 6 - - - - 10 - - 10.8 1022.8 0.0
12/12:00am W 6 7 - - - - 10 Mostly clear - 11.0 1022.9 0.0
 
Date/Time
EST
Wind Sea
Height
m
Swell Vis
km
Cloud Weather Temp
°C
Press
MSL
hPa
Rain since
9am
mm
Dir  Spd
kts
Gust
kts
Height
m
Period
s
Dir
11/11:30pm W 5 7 - - - - 10 Cloudy - 12.7 1023.0 0.0
11/11:00pm W 6 8 - - - - 10 Cloudy - 13.6 1023.2 0.0
11/10:30pm SW 5 7 - - - - 10 Cloudy - 14.3 1023.3 0.0
11/10:00pm SW 5 6 - - - - 10 Cloudy - 14.0 1023.4 0.0
11/09:30pm SSW 4 5 - - - - 10 Cloudy - 14.1 1023.3 0.0
11/09:00pm CALM 0 2 - - - - 10 Cloudy - 14.3 1023.3 0.0
11/08:30pm SSW 3 4 - - - - 10 Partly cloudy - 14.4 1023.1 0.0
11/08:00pm SSW 5 6 - - - - 10 Partly cloudy - 14.5 1023.2 0.0
11/07:30pm SSW 4 5 - - - - 10 Partly cloudy - 14.5 1023.3 0.0
11/07:00pm S 3 4 - - - - 10 Partly cloudy - 14.3 1023.4 0.0
11/06:30pm S 4 5 - - - - 10 Partly cloudy - 14.0 1023.2 0.0
11/06:00pm S 6 8 - - - - 10 Cloudy - 14.7 1023.2 0.0
11/05:30pm S 10 13 - - - - 10 Cloudy - 15.3 1023.0 0.0
11/05:00pm S 10 12 - - - - 10 Cloudy - 16.1 1022.9 0.0
11/04:30pm S 8 11 - - - - 10 Cloudy - 16.6 1022.9 0.0
11/04:00pm S 9 12 - - - - 10 Cloudy - 16.7 1022.9 0.0
11/03:30pm S 10 13 - - - - 10 Cloudy - 16.5 1022.8 0.0
11/03:00pm S 8 11 - - - - 10 Cloudy - 16.8 1022.7 0.0
11/02:30pm S 7 11 - - - - 10 Cloudy - 16.8 1022.7 0.0
11/02:00pm S 8 11 - - - - 10 Partly cloudy - 17.0 1022.8 0.0
11/01:30pm S 9 12 - - - - 10 Partly cloudy - 16.9 1022.9 0.0
11/01:00pm SSW 8 11 - - - - 10 Partly cloudy - 17.0 1023.2 0.0

Other formats

Comma delimited format used in spreadsheet applications
http://www.bom.gov.au/fwo/IDV60701/IDV60701.94854.axf

JavaScript Object Notation format (JSON) in row-major order
http://www.bom.gov.au/fwo/IDV60701/IDV60701.94854.json

Data quality

Most of these data are generated automatically and are frequently updated. Quality checks on data are not normally performed. It is possible for incorrect values to appear. Refer to information at About Latest Weather Observations and please check the disclaimer before using these data.